Briefing drone pour Saint-cernin

Rechercher une autre localisation

Conditions de vol :


Nous sommes le : Mardi 31 janvier 2023
Il est 14:16 UTC (15:16 LT)

Lever de soleil : 06:45 UTC (07:45 LT)
Coucher de soleil : 17:22 UTC (18:22 LT)

Météo

L'essentiel des conditions de vol

VIGILANCE MÉTÉO FRANCE - Cantal (15)
Pas de vigilances particulieres
METAR de LFLW
LFLW 311400Z AUTO 34010KT 9999 OVC027 06/01 Q1029

Date d'émission: 31/01/2023
Heure d'émission: 14:00 UTC
Vent: 340° pour 10 KT (19 km/h)
Visibilité horizontale: > 10 km
Plafond :
- Couvert à 2700ft (823m)
Température: 6 °C
Point de rosée: 1 °C
Humidité: 70%
Pression (QNH): 1029 hPa
Prévision 24h pour Aurillac (9 km)
Vent : 10° pour 1 KT (3 km/h)
Temperature Maxi: 1 °C
Temperature Min: 1 °C
Humidité : 89%
Condition : Peu nuageux



Warning: count(): Parameter must be an array or an object that implements Countable in /homepages/6/d509196549/htdocs/droneoxygene/briefing.php on line 743
WEBCAM POUR SAINT-CERNIN

Réglementation

Voler en sécurité

CARTES AERONAUTIQUE 1/500.000
CARTE AZBA (Reseau basse altitude)
CARTES VAC (LFLW)
SUP AIP




Chargement des AIP...
NOTAM (SAINT-CERNIN + Terrain à proximité / FIR )




Chargement des NOTAMS...
CONTACT PREFECTURE 15
Cantal (15) : [email protected]


Avertissement : Les données mises à disposition sont indicatives. Oxygène Drone ne pourra être tenu responsable de dégâts causés aux biens et aux personnes.